Station: Badgingarra  

  Atmospheric Gas Attenuation - ITU Rec 676-11   ----------------- dB/100km -----------------
Date Time Temp RH % AH g/m3 Dew Point Wind Direction Speed kph Gust kph Barometer mB Rainfall Since 9am 24GHz 47GHz 76GHz 122GHz 134GHz 241GHz
02/09 10:20 14.5 57 7.09 6.1 13 19 1013.1 0 16.3 23.3 33.6 87.9 78.3 268.2
02/09 10:10 13.8 61 7.27 6.4 15 24 1013.1 0 16.8 23.8 34.6 90.5 81.2 278.4
02/09 10:00 14.1 60 7.28 6.5 11 19 1013.1 0 16.8 23.7 34.5 90.3 81.1 277.8
02/09 09:50 14.3 56 6.88 5.7 9 19 1013.1 0 15.9 23.1 32.9 86.1 75.9 259.7
02/09 09:40 14.1 61 7.4 6.7 6 9 1013.1 0 17.0 23.9 35.0 91.5 82.6 283.1
02/09 09:30 13.8 60 7.15 6.2 7 11 1013.1 0 16.5 23.6 34.1 89.3 79.7 273.1
02/09 09:20 13.6 70 8.24 8.2 9 11 1013.1 0 18.8 25.4 38.5 100.9 93.9 322.7
02/09 09:10 13.1 69 7.87 7.5 9 13 1013.1 0 18.1 24.9 37.2 97.6 89.7 307.9
02/09 09:00 12.9 70 7.89 7.6 9 13 1013.1 0 18.1 25.0 37.4 98.0 90.2 309.5
02/09 08:50 12.7 73 8.13 8 6 9 1013.1 0 18.6 25.4 38.4 100.8 93.5 321.4
02/09 08:40 12.2 75 8.09 7.9 6 9 1013.1 0 18.6 25.5 38.5 101.0 93.6 321.6
02/09 08:30 11.7 80 8.37 8.4 4 6 1013.1 0 19.2 26.1 39.9 104.7 98.0 336.8
02/09 08:20 11.2 86 8.72 8.9 0 2 1013.1 0 20.0 26.9 41.6 109.3 103.4 355.7
02/09 08:10 10.7 87 8.55 8.6 0 4 1013.1 0 19.6 26.7 41.2 108.1 101.7 349.7
02/09 08:00 10.3 88 8.43 8.4 0 0 1013.1 0 19.4 26.6 40.9 107.3 100.6 345.7
02/09 07:50 10.1 88 8.32 8.2 0 0 1013.1 0 19.2 26.5 40.5 106.4 99.4 341.3
02/09 07:40 10 88 8.27 8.1 0 0 1013.1 0 19.1 26.5 40.4 105.9 98.8 339.4
02/09 07:30 9.9 88 8.22 8 0 0 1013.1 0 19.0 26.4 40.2 105.5 98.2 337.4
02/09 07:20 9.9 88 8.22 8.1 0 0 1013.1 0 19.0 26.4 40.2 105.5 98.2 337.4
02/09 07:10 9.8 90 8.35 8.2 0 0 1013.1 0 19.2 26.7 40.8 107.1 100.2 344.1
02/09 07:00 9.3 90 8.09 7.7 2 4 1013.1 0 18.7 26.4 40.0 104.9 97.2 333.7
02/09 06:50 9 90 7.94 7.5 2 4 1013.1 0 18.4 26.2 39.5 103.6 95.5 327.8
02/09 06:40 8.7 90 7.79 7.1 0 0 1013.1 0 18.1 26.0 39.0 102.3 93.8 321.8
02/09 06:30 8.7 91 7.87 7.3 0 0 1013.1 0 18.3 26.2 39.3 103.2 94.9 325.6
02/09 06:20 8.6 91 7.82 7.2 0 0 1013.1 0 18.2 26.1 39.2 102.8 94.4 323.6
02/09 06:10 8.7 90 7.79 7.2 2 6 1013.1 0 18.1 26.0 39.0 102.3 93.8 321.8
02/09 06:00 8.6 91 7.82 7.2 0 0 1013.1 0 18.2 26.1 39.2 102.8 94.4 323.6
02/09 05:50 8.6 91 7.82 7.2 0 0 1013.1 0 18.2 26.1 39.2 102.8 94.4 323.6
02/09 05:40 8.7 91 7.87 7.4 0 0 1013.1 0 18.3 26.2 39.3 103.2 94.9 325.6
02/09 05:30 8.7 92 7.96 7.5 0 0 1013.1 0 18.5 26.3 39.7 104.2 96.2 330.0
02/09 05:20 8.7 91 7.87 7.3 0 0 1013.1 0 18.3 26.2 39.3 103.2 94.9 325.6
02/09 05:10 8.9 90 7.89 7.3 0 0 1013.1 0 18.3 26.2 39.3 103.2 95.0 325.8
02/09 05:00 9 90 7.94 7.5 0 0 1013.1 0 18.4 26.2 39.5 103.6 95.5 327.8
02/09 04:50 8.8 90 7.84 7.2 0 0 1013.1 0 18.2 26.1 39.2 102.7 94.4 323.8
02/09 04:40 8.9 88 7.71 7.1 0 0 1013.1 0 17.9 25.9 38.6 101.2 92.5 317.1
02/09 04:30 8.8 89 7.75 7.1 0 0 1013.1 0 18.0 25.9 38.8 101.7 93.2 319.4
02/09 04:20 8.7 89 7.7 7 0 0 1013.1 0 17.9 25.9 38.6 101.3 92.6 317.5
02/09 04:10 8.7 88 7.61 6.8 0 0 1013.1 0 17.7 25.7 38.3 100.3 91.4 313.1
02/09 04:00 8.6 87 7.48 6.6 0 0 1013.1 0 17.4 25.6 37.8 99.0 89.7 307.3
02/09 03:50 8.6 89 7.65 6.9 0 0 1013.1 0 17.8 25.8 38.5 100.9 92.0 315.5
02/09 03:40 8.4 90 7.64 6.8 0 0 1013.1 0 17.8 25.9 38.5 101.0 92.1 315.8
02/09 03:30 8.2 91 7.62 6.8 0 0 1013.1 0 17.7 25.9 38.6 101.1 92.1 315.6
02/09 03:20 7.5 90 7.21 5.9 0 0 1013.1 0 16.9 25.4 37.2 97.4 87.3 298.7
02/09 03:10 7 89 6.9 5.3 2 4 1013.1 0 16.2 25.0 36.1 94.6 83.6 285.8
02/09 03:00 7 87 6.74 5 6 6 1013.1 0 15.9 24.8 35.5 92.8 81.4 278.2
02/09 02:50 7.6 86 6.93 5.4 4 6 1013.1 0 16.3 24.9 36.0 94.2 83.4 285.0
02/09 02:40 8 85 7.03 5.6 6 6 1013.1 0 16.5 25.0 36.2 94.8 84.3 288.3
02/09 02:30 7.7 85 6.9 5.3 4 6 1013.1 0 16.2 24.9 35.8 93.8 82.9 283.2
02/09 02:20 7.9 84 6.9 5.4 4 6 1013.1 0 16.2 24.8 35.7 93.5 82.6 282.5
02/09 02:10 8.4 84 7.13 5.9 6 6 1013.1 0 16.7 25.0 36.4 95.4 85.2 291.5
02/09 02:00 8.7 84 7.27 6.2 6 6 1013.1 0 17.0 25.2 36.9 96.6 86.7 297.0
02/09 01:50 9.1 84 7.46 6.5 6 6 1013.1 0 17.4 25.4 37.5 98.2 88.9 304.4
02/09 01:40 9.3 85 7.64 6.9 6 6 1013.1 0 17.7 25.6 38.1 99.9 91.1 312.2
02/09 01:30 9.5 86 7.83 7.3 6 7 1013.1 0 18.1 25.9 38.8 101.7 93.4 320.4
02/09 01:20 9.8 86 7.98 7.6 7 9 1013.1 0 18.4 26.0 39.3 103.0 95.1 326.3
02/09 01:10 10 84 7.9 7.4 9 11 1013.1 0 18.3 25.8 38.8 101.8 93.7 321.7
02/09 01:00 9.8 86 7.98 7.6 7 9 1013.1 0 18.4 26.0 39.3 103.0 95.1 326.3
02/09 00:50 9.6 88 8.06 7.7 7 9 1013.1 0 18.6 26.2 39.7 104.1 96.4 331.0
02/09 00:40 9.2 91 8.13 7.8 7 9 1013.1 0 18.8 26.5 40.2 105.4 97.9 336.1
02/09 00:30 8.9 90 7.89 7.4 7 7 1013.1 0 18.3 26.2 39.3 103.2 95.0 325.8
02/09 00:20 8.5 91 7.77 7.1 6 7 1013.1 0 18.1 26.1 39.0 102.4 93.8 321.6
02/09 00:10 8.2 91 7.62 6.8 7 9 1013.1 0 17.7 25.9 38.6 101.1 92.1 315.6
02/09 00:00 8.2 91 7.62 6.8 7 9 1013.1 0 17.7 25.9 38.6 101.1 92.1 315.6
01/09 23:50 8.4 90 7.64 6.8 7 7 1013.1 0 17.8 25.9 38.5 101.0 92.1 315.8
01/09 23:40 8.4 91 7.72 7 7 7 1013.1 0 18.0 26.0 38.9 101.9 93.2 319.6
01/09 23:30 8.2 90 7.54 6.7 9 9 1013.1 0 17.6 25.8 38.2 100.2 91.0 311.8
01/09 23:20 8.3 90 7.59 6.8 9 11 1013.1 0 17.7 25.8 38.4 100.6 91.6 313.8
01/09 23:10 8.6 90 7.74 7 9 9 1013.1 0 18.0 26.0 38.9 101.9 93.3 319.8
01/09 23:00 8.7 90 7.79 7.2 9 9 1013.1 0 18.1 26.0 39.0 102.3 93.8 321.8
01/09 22:50 8.6 90 7.74 7.1 9 11 1013.1 0 18.0 26.0 38.9 101.9 93.3 319.8
01/09 22:40 8.8 88 7.66 6.9 9 11 1013.1 0 17.8 25.8 38.4 100.7 91.9 315.1
01/09 22:30 9.1 87 7.72 7.1 9 13 1013.1 0 17.9 25.8 38.5 101.0 92.4 316.8
01/09 22:20 9.7 86 7.93 7.5 11 13 1013.1 0 18.3 26.0 39.1 102.6 94.5 324.3
01/09 22:10 9.9 84 7.85 7.3 13 17 1013.1 0 18.2 25.8 38.7 101.4 93.2 319.7
01/09 22:00 9.9 85 7.94 7.5 15 17 1013.1 0 18.4 25.9 39.0 102.4 94.4 324.0
01/09 21:50 9.9 86 8.03 7.7 13 15 1013.1 0 18.6 26.1 39.4 103.4 95.6 328.3
01/09 21:40 10 86 8.08 7.8 15 17 1013.1 0 18.7 26.1 39.6 103.8 96.2 330.2
01/09 21:30 10.3 85 8.14 7.9 17 19 1013.1 0 18.8 26.2 39.7 104.1 96.6 331.8
01/09 21:20 10.4 84 8.1 7.8 17 20 1013.1 0 18.7 26.1 39.5 103.5 96.0 329.5
01/09 21:10 10.6 83 8.1 7.8 17 20 1013.1 0 18.7 26.0 39.4 103.2 95.7 328.7
01/09 21:00 10.6 83 8.1 7.8 17 20 1013.1 0 18.7 26.0 39.4 103.2 95.7 328.7
01/09 20:50 10.5 83 8.05 7.7 15 19 1013.1 0 18.6 26.0 39.2 102.8 95.2 326.7
01/09 20:40 10.4 83 8 7.6 17 20 1013.1 0 18.5 25.9 39.0 102.4 94.6 324.8
01/09 20:30 10.6 82 8.01 7.7 19 20 1013.1 0 18.5 25.9 39.0 102.3 94.5 324.4
01/09 20:20 10.7 81 7.96 7.6 19 20 1013.1 0 18.4 25.7 38.7 101.6 93.7 321.6
01/09 20:10 10.8 80 7.91 7.5 19 22 1013.1 0 18.3 25.6 38.5 100.9 92.9 318.9
01/09 20:00 10.8 80 7.91 7.5 17 22 1013.1 0 18.3 25.6 38.5 100.9 92.9 318.9
01/09 19:50 10.7 79 7.76 7.2 17 22 1013.1 0 17.9 25.4 37.9 99.4 91.0 312.2
01/09 19:40 11.1 78 7.86 7.4 19 20 1013.1 0 18.1 25.5 38.1 100.0 91.9 315.3
01/09 19:30 11.2 76 7.7 7.1 19 24 1013.1 0 17.8 25.2 37.4 98.1 89.6 307.5
01/09 19:20 10.7 79 7.76 7.2 17 19 1013.1 0 17.9 25.4 37.9 99.4 91.0 312.2
01/09 19:10 10.4 82 7.9 7.5 15 19 1013.1 0 18.2 25.7 38.6 101.3 93.3 320.0
01/09 19:00 10.7 81 7.96 7.6 15 17 1013.1 0 18.4 25.7 38.7 101.6 93.7 321.6
01/09 18:50 11.4 76 7.8 7.3 17 20 1013.1 0 18.0 25.3 37.7 99.0 90.7 311.3
01/09 18:40 11.8 76 8 7.7 17 20 1013.1 0 18.4 25.5 38.4 100.6 92.9 319.0
01/09 18:30 11.6 79 8.21 8.1 17 19 1013.1 0 18.9 25.9 39.3 103.1 96.0 329.6
01/09 18:20 11.9 79 8.37 8.4 15 15 1013.1 0 19.2 26.1 39.8 104.5 97.7 335.9
01/09 18:10 12.9 74 8.34 8.4 13 15 1013.1 0 19.1 25.7 39.2 102.8 96.1 330.2
01/09 18:00 13.9 69 8.27 8.3 13 22 1013.1 0 18.9 25.3 38.4 100.8 93.9 322.9
01/09 17:50 14.7 65 8.18 8.2 17 22 1013.1 0 18.7 25.0 37.7 98.8 91.8 315.6

Last Refresh: 02-Sep-2026 12:03:38

Bureau of Meteorology